createdAt,value
2023-05-05T00:01:16.142Z,101319.50
2023-05-05T00:03:37.957Z,101307.34
2023-05-05T00:05:59.860Z,101311.09
2023-05-05T00:08:22.275Z,101320.72
2023-05-05T00:10:52.377Z,101321.25
2023-05-05T00:13:15.196Z,101324.97
2023-05-05T00:15:38.257Z,101319.47
2023-05-05T00:17:59.970Z,101310.44
2023-05-05T00:20:22.929Z,101313.34
2023-05-05T00:22:44.565Z,101314.66
2023-05-05T00:25:07.111Z,101320.31
2023-05-05T00:27:28.779Z,101316.03
2023-05-05T00:29:50.700Z,101307.34
2023-05-05T00:32:12.315Z,101307.84
2023-05-05T00:34:34.121Z,101302.28
2023-05-05T00:36:55.821Z,101311.88
2023-05-05T00:39:17.495Z,101313.91
2023-05-05T00:41:39.182Z,101312.75
2023-05-05T00:44:00.900Z,101312.38
2023-05-05T00:46:26.935Z,101311.22
2023-05-05T00:48:48.945Z,101314.34
2023-05-05T00:51:10.733Z,101317.50
2023-05-05T00:53:33.097Z,101327.88
2023-05-05T00:55:55.007Z,101339.38
2023-05-05T00:58:18.097Z,101331.78
2023-05-05T01:00:40.261Z,101334.56
2023-05-05T01:03:02.175Z,101313.88
2023-05-05T01:05:27.002Z,101328.97
2023-05-05T01:08:22.995Z,101329.41
2023-05-05T01:10:53.162Z,101341.75
2023-05-05T01:13:31.610Z,101340.13
2023-05-05T01:16:27.657Z,101334.56
2023-05-05T01:19:03.931Z,101341.31
2023-05-05T01:21:41.306Z,101342.91
2023-05-05T01:25:03.352Z,101340.13
2023-05-05T01:28:00.142Z,101344.88
2023-05-05T01:31:08.532Z,101349.25
2023-05-05T01:33:43.890Z,101356.88
2023-05-05T01:36:22.623Z,101364.88
2023-05-05T01:38:46.725Z,101357.31
2023-05-05T01:41:19.373Z,101365.66
2023-05-05T01:43:45.781Z,101367.22
2023-05-05T01:46:08.853Z,101370.31
2023-05-05T01:48:33.376Z,101366.28
2023-05-05T01:50:55.337Z,101361.47
2023-05-05T01:53:20.441Z,101369.31
2023-05-05T01:55:43.321Z,101374.44
2023-05-05T01:58:07.701Z,101369.25
2023-05-05T02:00:31.755Z,101362.44
2023-05-05T02:02:59.826Z,101367.47
2023-05-05T02:05:24.988Z,101365.88
2023-05-05T02:07:47.318Z,101358.69
2023-05-05T02:10:13.531Z,101355.91
2023-05-05T02:12:37.308Z,101339.53
2023-05-05T02:15:02.648Z,101333.16
2023-05-05T02:17:27.591Z,101333.88
2023-05-05T02:19:52.975Z,101350.56
2023-05-05T02:22:16.538Z,101352.91
2023-05-05T02:24:38.574Z,101352.84
2023-05-05T02:27:06.015Z,101353.56
2023-05-05T02:29:48.738Z,101371.03
2023-05-05T02:32:20.439Z,101372.13
2023-05-05T02:34:46.335Z,101360.13
2023-05-05T02:37:19.677Z,101365.59
2023-05-05T02:39:51.584Z,101370.28
2023-05-05T02:42:21.624Z,101379.31
2023-05-05T02:44:46.329Z,101380.78
2023-05-05T02:47:09.092Z,101373.50
2023-05-05T02:49:31.448Z,101379.75
2023-05-05T02:51:55.311Z,101380.84
2023-05-05T02:54:21.469Z,101382.75
2023-05-05T02:56:49.423Z,101380.69
2023-05-05T02:59:53.125Z,101380.59
2023-05-05T03:02:31.780Z,101389.06
2023-05-05T03:05:02.799Z,101384.50
2023-05-05T03:07:31.548Z,101390.63
2023-05-05T03:10:09.497Z,101390.81
2023-05-05T03:12:58.535Z,101390.19
2023-05-05T03:15:41.480Z,101394.69
2023-05-05T03:18:04.321Z,101396.84
2023-05-05T03:20:26.709Z,101397.84
2023-05-05T03:22:50.911Z,101397.66
2023-05-05T03:25:13.054Z,101398.72
2023-05-05T03:27:35.016Z,101400.94
2023-05-05T03:29:57.390Z,101406.41
2023-05-05T03:32:20.901Z,101404.81
2023-05-05T03:34:42.799Z,101404.25
2023-05-05T03:37:04.676Z,101401.72
2023-05-05T03:39:26.471Z,101402.00
2023-05-05T03:41:49.231Z,101395.50
2023-05-05T03:44:13.378Z,101403.75
2023-05-05T03:46:35.979Z,101411.66
2023-05-05T03:48:58.845Z,101418.22
2023-05-05T03:51:22.065Z,101423.59
2023-05-05T03:53:43.817Z,101419.44
2023-05-05T03:56:05.910Z,101428.38
2023-05-05T03:58:27.823Z,101415.56
2023-05-05T04:00:49.484Z,101419.38
2023-05-05T04:03:12.249Z,101427.63
2023-05-05T04:05:34.096Z,101430.66
2023-05-05T04:07:57.884Z,101433.66
2023-05-05T04:10:20.065Z,101435.59
2023-05-05T04:12:41.855Z,101435.97
2023-05-05T04:15:04.052Z,101439.56
2023-05-05T04:17:26.358Z,101445.81
2023-05-05T04:19:48.187Z,101448.13
2023-05-05T04:22:09.930Z,101452.41
2023-05-05T04:24:31.763Z,101452.41
2023-05-05T04:26:54.574Z,101445.22
2023-05-05T04:29:16.767Z,101452.41
2023-05-05T04:31:38.572Z,101464.78
2023-05-05T04:34:00.434Z,101472.31
2023-05-05T04:36:22.393Z,101465.25
2023-05-05T04:38:44.691Z,101467.66
2023-05-05T04:41:06.671Z,101464.53
2023-05-05T04:43:29.506Z,101465.81
2023-05-05T04:45:55.891Z,101474.13
2023-05-05T04:48:21.284Z,101474.94
2023-05-05T04:50:42.934Z,101477.72
2023-05-05T04:53:04.733Z,101473.44
2023-05-05T04:55:26.580Z,101478.66
2023-05-05T04:57:48.300Z,101469.50
2023-05-05T05:00:11.028Z,101474.34
2023-05-05T05:02:33.092Z,101477.59
2023-05-05T05:04:54.939Z,101468.09
2023-05-05T05:07:16.715Z,101476.88
2023-05-05T05:09:38.464Z,101477.34
2023-05-05T05:12:03.054Z,101488.91
2023-05-05T05:14:24.790Z,101479.75
2023-05-05T05:16:51.051Z,101484.97
2023-05-05T05:19:14.345Z,101484.63
2023-05-05T05:21:36.237Z,101487.03
2023-05-05T05:23:58.389Z,101486.78
2023-05-05T05:26:21.405Z,101487.72
2023-05-05T05:28:43.917Z,101487.13
2023-05-05T05:31:05.679Z,101478.53
2023-05-05T05:33:27.492Z,101481.91
2023-05-05T05:35:50.851Z,101482.34
2023-05-05T05:38:15.221Z,101477.72
2023-05-05T05:40:37.374Z,101477.81
2023-05-05T05:42:59.106Z,101483.94
2023-05-05T05:45:23.337Z,101476.94
2023-05-05T05:47:45.234Z,101477.16
2023-05-05T05:50:07.898Z,101480.47
2023-05-05T05:52:30.502Z,101479.88
2023-05-05T05:54:52.362Z,101487.22
2023-05-05T05:57:14.164Z,101491.47
2023-05-05T05:59:36.252Z,101492.47
2023-05-05T06:01:59.153Z,101492.28
2023-05-05T06:04:21.172Z,101496.53
2023-05-05T06:06:43.784Z,101499.47
2023-05-05T06:09:05.760Z,101500.13
2023-05-05T06:11:28.498Z,101498.34
2023-05-05T06:13:50.415Z,101504.44
2023-05-05T06:16:12.549Z,101509.09
2023-05-05T06:18:38.202Z,101510.91
2023-05-05T06:21:00.316Z,101518.59
2023-05-05T06:23:24.316Z,101521.56
2023-05-05T06:25:51.626Z,101529.28
2023-05-05T06:28:13.313Z,101516.31
2023-05-05T06:30:35.082Z,101526.88
2023-05-05T06:32:58.606Z,101527.94
2023-05-05T06:35:22.116Z,101534.47
2023-05-05T06:37:44.348Z,101534.34
2023-05-05T06:40:07.953Z,101529.41
2023-05-05T06:42:30.869Z,101532.03
2023-05-05T06:44:53.637Z,101529.75
2023-05-05T06:47:16.085Z,101532.69
2023-05-05T06:49:37.765Z,101542.53
2023-05-05T06:51:59.668Z,101539.19
2023-05-05T06:54:21.424Z,101542.91
2023-05-05T06:56:43.171Z,101545.09
2023-05-05T06:59:04.994Z,101539.34
2023-05-05T07:01:26.849Z,101547.84
2023-05-05T07:03:48.774Z,101544.00
2023-05-05T07:06:11.388Z,101547.72
2023-05-05T07:08:33.120Z,101548.00
2023-05-05T07:10:55.266Z,101544.00
2023-05-05T07:13:17.401Z,101544.13
2023-05-05T07:15:46.391Z,101543.94
2023-05-05T07:18:08.215Z,101548.44
2023-05-05T07:20:30.053Z,101540.13
2023-05-05T07:22:51.740Z,101545.88
2023-05-05T07:25:13.478Z,101548.84
2023-05-05T07:27:37.264Z,101551.78
2023-05-05T07:29:59.164Z,101556.34
2023-05-05T07:32:21.052Z,101557.38
2023-05-05T07:34:42.884Z,101555.53
2023-05-05T07:37:05.261Z,101553.59
2023-05-05T07:39:27.103Z,101553.69
2023-05-05T07:41:49.217Z,101558.16
2023-05-05T07:44:11.486Z,101562.69
2023-05-05T07:46:33.334Z,101561.28
2023-05-05T07:48:55.184Z,101562.22
2023-05-05T07:51:17.513Z,101556.28
2023-05-05T07:53:41.219Z,101557.56
2023-05-05T07:56:03.532Z,101555.69
2023-05-05T07:58:25.382Z,101547.31
2023-05-05T08:00:47.889Z,101549.34
2023-05-05T08:03:11.942Z,101551.00
2023-05-05T08:05:33.933Z,101555.09
2023-05-05T08:07:55.811Z,101562.38
2023-05-05T08:10:17.632Z,101545.66
2023-05-05T08:12:40.398Z,101553.81
2023-05-05T08:15:02.391Z,101551.97
2023-05-05T08:17:26.248Z,101551.25
2023-05-05T08:19:52.175Z,101549.75
2023-05-05T08:22:14.138Z,101544.13
2023-05-05T08:24:36.188Z,101551.75
2023-05-05T08:26:57.962Z,101556.91
2023-05-05T08:29:19.764Z,101537.69
2023-05-05T08:31:41.545Z,101542.19
2023-05-05T08:34:05.900Z,101545.44
2023-05-05T08:36:29.054Z,101549.09
2023-05-05T08:38:51.296Z,101547.13
2023-05-05T08:41:17.154Z,101541.94
2023-05-05T08:43:39.394Z,101544.34
2023-05-05T08:46:01.648Z,101547.56
2023-05-05T08:48:28.337Z,101545.56
2023-05-05T08:51:00.323Z,101538.75
2023-05-05T08:54:02.501Z,101545.56
2023-05-05T08:56:33.976Z,101550.81
2023-05-05T08:58:57.695Z,101557.63
2023-05-05T09:01:21.221Z,101550.78
2023-05-05T09:03:44.629Z,101551.19
2023-05-05T09:06:07.259Z,101563.66
2023-05-05T09:08:29.633Z,101561.66
2023-05-05T09:10:52.199Z,101558.47
2023-05-05T09:13:18.474Z,101563.28
2023-05-05T09:15:42.048Z,101574.13
2023-05-05T09:18:09.391Z,101559.25
2023-05-05T09:20:37.324Z,101558.44
2023-05-05T09:23:11.936Z,101560.84
2023-05-05T09:25:33.616Z,101561.66
2023-05-05T09:27:55.316Z,101572.91
2023-05-05T09:30:29.448Z,101570.88
2023-05-05T09:32:54.701Z,101568.88
2023-05-05T09:35:19.148Z,101569.66
2023-05-05T09:37:41.642Z,101563.63
2023-05-05T09:40:03.595Z,101564.44
2023-05-05T09:42:25.308Z,101565.22
2023-05-05T09:44:48.160Z,101569.63
2023-05-05T09:47:21.974Z,101570.84
2023-05-05T09:49:44.196Z,101558.00
2023-05-05T09:52:16.452Z,101565.22
2023-05-05T09:54:38.476Z,101566.03
2023-05-05T09:57:00.257Z,101557.59
2023-05-05T09:59:23.176Z,101559.59
2023-05-05T10:01:44.998Z,101564.84
2023-05-05T10:04:06.794Z,101560.41
2023-05-05T10:06:48.214Z,101555.22
2023-05-05T10:09:10.782Z,101561.22
2023-05-05T10:11:34.531Z,101554.38
2023-05-05T10:13:56.811Z,101552.34
2023-05-05T10:16:20.864Z,101555.97
2023-05-05T10:18:46.943Z,101549.94
2023-05-05T10:21:10.668Z,101553.97
2023-05-05T10:23:41.810Z,101551.56
2023-05-05T10:26:08.201Z,101545.13
2023-05-05T10:28:54.976Z,101541.09
2023-05-05T10:31:30.596Z,101540.31
2023-05-05T10:34:10.625Z,101536.28
2023-05-05T10:36:34.247Z,101535.06
2023-05-05T10:38:57.814Z,101535.47
2023-05-05T10:41:21.382Z,101534.28
2023-05-05T10:43:43.878Z,101528.28
2023-05-05T10:46:06.784Z,101525.88
2023-05-05T10:48:39.838Z,101521.84
2023-05-05T10:51:39.920Z,101523.03
2023-05-05T10:54:20.736Z,101528.63
2023-05-05T10:56:43.524Z,101526.97
2023-05-05T10:59:37.138Z,101520.16
2023-05-05T11:01:58.902Z,101516.94
2023-05-05T11:04:23.336Z,101515.31
2023-05-05T11:07:09.129Z,101516.94
2023-05-05T11:09:32.322Z,101517.69
2023-05-05T11:12:07.133Z,101514.47
2023-05-05T11:14:28.769Z,101521.66
2023-05-05T11:16:51.109Z,101506.75
2023-05-05T11:19:43.957Z,101523.94
2023-05-05T11:22:05.664Z,101526.19
2023-05-05T11:24:31.292Z,101530.06
2023-05-05T11:26:53.109Z,101525.09
2023-05-05T11:29:14.779Z,101552.94
2023-05-05T11:31:36.679Z,101545.38
2023-05-05T11:34:29.072Z,101546.09
2023-05-05T11:36:53.756Z,101565.88
2023-05-05T11:39:54.330Z,101565.09
2023-05-05T11:42:27.261Z,101588.75
2023-05-05T11:44:49.665Z,101593.72
2023-05-05T11:47:11.324Z,101601.47
2023-05-05T11:49:34.924Z,101607.97
2023-05-05T11:51:58.214Z,101607.72
2023-05-05T11:54:21.558Z,101617.25
2023-05-05T11:56:52.131Z,101614.78
2023-05-05T11:59:13.845Z,101620.38
2023-05-05T12:01:41.503Z,101619.47
2023-05-05T12:04:04.199Z,101616.84
2023-05-05T12:06:26.857Z,101620.75
2023-05-05T12:08:48.536Z,101624.25
2023-05-05T12:11:11.616Z,101615.13
2023-05-05T12:13:33.408Z,101623.69
2023-05-05T12:15:55.081Z,101622.69
2023-05-05T12:18:20.843Z,101616.19
2023-05-05T12:20:42.595Z,101611.44
2023-05-05T12:23:04.778Z,101617.13
2023-05-05T12:25:36.872Z,101621.25
2023-05-05T12:27:58.673Z,101620.66
2023-05-05T12:30:21.754Z,101612.00
2023-05-05T12:32:45.068Z,101619.16
2023-05-05T12:35:09.861Z,101615.22
2023-05-05T12:37:32.465Z,101610.56
2023-05-05T12:39:57.172Z,101611.72
2023-05-05T12:42:19.454Z,101607.03
2023-05-05T12:44:43.703Z,101603.78
2023-05-05T12:47:07.018Z,101599.38
2023-05-05T12:49:29.191Z,101590.56
2023-05-05T12:51:56.532Z,101584.66
2023-05-05T12:54:19.464Z,101583.94
2023-05-05T12:56:50.713Z,101585.59
2023-05-05T12:59:30.157Z,101580.03
2023-05-05T13:01:54.273Z,101584.31
2023-05-05T13:04:17.391Z,101579.91
2023-05-05T13:06:44.999Z,101585.47
2023-05-05T13:09:09.997Z,101593.81
2023-05-05T13:11:39.813Z,101590.69
2023-05-05T13:14:01.977Z,101594.06
2023-05-05T13:16:24.224Z,101594.41
2023-05-05T13:18:50.461Z,101610.66
2023-05-05T13:21:12.889Z,101613.31
2023-05-05T13:23:34.679Z,101607.75
2023-05-05T13:25:56.966Z,101606.63
2023-05-05T13:28:18.664Z,101618.16
2023-05-05T13:30:42.806Z,101619.81
2023-05-05T13:33:05.111Z,101625.00
2023-05-05T13:35:27.311Z,101617.47
2023-05-05T13:37:49.094Z,101621.63
2023-05-05T13:40:13.454Z,101619.50
2023-05-05T13:42:35.180Z,101621.56
2023-05-05T13:44:56.922Z,101623.88
2023-05-05T13:47:18.742Z,101622.28
2023-05-05T13:49:40.651Z,101616.72
2023-05-05T13:52:02.839Z,101613.13
2023-05-05T13:54:24.576Z,101614.66
2023-05-05T13:56:46.668Z,101616.06
2023-05-05T13:59:09.303Z,101615.25
2023-05-05T14:01:31.284Z,101621.16
2023-05-05T14:03:54.458Z,101620.59
2023-05-05T14:06:18.317Z,101633.25
2023-05-05T14:08:40.289Z,101622.00
2023-05-05T14:11:03.190Z,101626.28
2023-05-05T14:13:25.141Z,101628.19
2023-05-05T14:15:47.311Z,101622.41
2023-05-05T14:18:09.657Z,101614.88
2023-05-05T14:20:31.755Z,101621.69
2023-05-05T14:22:54.729Z,101613.09
2023-05-05T14:25:16.681Z,101617.72
2023-05-05T14:27:40.386Z,101614.31
2023-05-05T14:30:04.182Z,101616.59
2023-05-05T14:32:26.755Z,101614.84
2023-05-05T14:34:50.431Z,101608.97
2023-05-05T14:37:12.682Z,101606.03
2023-05-05T14:39:35.822Z,101596.72
2023-05-05T14:41:58.229Z,101595.88
2023-05-05T14:44:20.376Z,101585.22
2023-05-05T14:46:44.677Z,101583.16
2023-05-05T14:49:07.592Z,101579.44
2023-05-05T14:51:29.703Z,101572.56
2023-05-05T14:53:51.517Z,101574.16
2023-05-05T14:56:14.245Z,101574.94
2023-05-05T14:58:36.240Z,101574.16
2023-05-05T15:00:58.161Z,101581.25
2023-05-05T15:03:20.667Z,101580.44
2023-05-05T15:05:42.705Z,101582.03
2023-05-05T15:08:04.800Z,101578.13
2023-05-05T15:10:26.601Z,101589.69
2023-05-05T15:12:48.772Z,101589.59
2023-05-05T15:15:11.433Z,101587.88
2023-05-05T15:17:33.415Z,101586.06
2023-05-05T15:19:55.152Z,101578.44
2023-05-05T15:22:16.922Z,101581.22
2023-05-05T15:24:38.999Z,101569.03
2023-05-05T15:27:00.787Z,101559.50
2023-05-05T15:29:22.782Z,101549.00
2023-05-05T15:31:45.653Z,101554.66
2023-05-05T15:34:07.587Z,101555.22
2023-05-05T15:36:29.234Z,101549.38
2023-05-05T15:38:51.042Z,101550.63
2023-05-05T15:41:12.928Z,101550.47
2023-05-05T15:43:35.158Z,101547.88
2023-05-05T15:45:57.362Z,101552.47
2023-05-05T15:48:19.115Z,101547.72
2023-05-05T15:50:41.575Z,101552.66
2023-05-05T15:53:03.278Z,101553.56
2023-05-05T15:55:25.634Z,101550.13
2023-05-05T15:57:47.361Z,101543.88
2023-05-05T16:00:10.322Z,101546.09
2023-05-05T16:02:32.590Z,101542.31
2023-05-05T16:04:55.076Z,101542.31
2023-05-05T16:07:18.594Z,101536.84
2023-05-05T16:09:40.295Z,101539.16
2023-05-05T16:12:02.830Z,101538.78
2023-05-05T16:14:25.045Z,101532.22
2023-05-05T16:16:46.971Z,101533.19
2023-05-05T16:19:09.149Z,101532.72
2023-05-05T16:21:31.717Z,101530.72
2023-05-05T16:23:54.267Z,101527.06
2023-05-05T16:26:16.781Z,101539.28
2023-05-05T16:28:38.808Z,101534.09
2023-05-05T16:31:02.508Z,101535.69
2023-05-05T16:33:24.713Z,101539.00
2023-05-05T16:35:47.996Z,101536.47
2023-05-05T16:38:10.595Z,101536.63
2023-05-05T16:40:33.229Z,101538.38
2023-05-05T16:42:56.627Z,101542.94
2023-05-05T16:45:18.626Z,101545.47
2023-05-05T16:47:40.971Z,101545.09
2023-05-05T16:50:04.593Z,101535.19
2023-05-05T16:52:26.964Z,101542.09
2023-05-05T16:54:55.660Z,101543.50
2023-05-05T16:57:18.227Z,101538.59
2023-05-05T16:59:42.298Z,101542.47
2023-05-05T17:02:04.913Z,101539.41
2023-05-05T17:04:27.825Z,101541.53
2023-05-05T17:06:49.892Z,101543.09
2023-05-05T17:09:12.596Z,101545.03
2023-05-05T17:11:36.371Z,101538.53
2023-05-05T17:13:58.670Z,101538.31
2023-05-05T17:16:20.810Z,101537.63
2023-05-05T17:18:42.904Z,101541.34
2023-05-05T17:21:05.143Z,101538.78
2023-05-05T17:23:27.231Z,101537.28
2023-05-05T17:25:49.039Z,101527.06
2023-05-05T17:28:10.972Z,101525.88
2023-05-05T17:30:32.950Z,101535.44
2023-05-05T17:32:55.271Z,101538.50
2023-05-05T17:35:17.298Z,101540.81
2023-05-05T17:37:39.325Z,101531.94
2023-05-05T17:40:01.092Z,101530.72
2023-05-05T17:42:23.095Z,101532.25
2023-05-05T17:44:47.003Z,101531.38
2023-05-05T17:47:10.675Z,101540.13
2023-05-05T17:49:32.720Z,101531.34
2023-05-05T17:51:54.882Z,101537.63
2023-05-05T17:54:16.905Z,101538.38
2023-05-05T17:56:38.996Z,101537.13
2023-05-05T17:59:01.207Z,101538.25
2023-05-05T18:01:24.745Z,101538.09
2023-05-05T18:03:47.253Z,101543.53
2023-05-05T18:06:09.090Z,101547.38
2023-05-05T18:08:30.973Z,101547.97
2023-05-05T18:10:54.326Z,101544.22
2023-05-05T18:13:16.651Z,101546.03
2023-05-05T18:15:40.062Z,101543.16
2023-05-05T18:18:01.905Z,101554.22
2023-05-05T18:20:23.657Z,101548.91
2023-05-05T18:22:46.710Z,101551.25
2023-05-05T18:25:09.485Z,101553.69
2023-05-05T18:27:32.609Z,101558.03
2023-05-05T18:29:55.730Z,101563.16
2023-05-05T18:32:18.462Z,101558.31
2023-05-05T18:34:41.597Z,101551.47
2023-05-05T18:37:03.382Z,101554.28
2023-05-05T18:39:25.781Z,101555.34
2023-05-05T18:41:47.652Z,101554.47
2023-05-05T18:44:10.467Z,101555.94
2023-05-05T18:46:32.776Z,101563.38
2023-05-05T18:48:54.965Z,101561.25
2023-05-05T18:51:17.201Z,101568.28
2023-05-05T18:53:40.373Z,101571.22
2023-05-05T18:56:02.120Z,101573.50
2023-05-05T18:58:24.440Z,101572.97
2023-05-05T19:00:46.520Z,101574.03
2023-05-05T19:03:08.207Z,101574.31
2023-05-05T19:05:30.018Z,101577.00
2023-05-05T19:07:51.763Z,101578.44
2023-05-05T19:10:13.752Z,101577.53
2023-05-05T19:12:35.796Z,101574.88
2023-05-05T19:14:57.633Z,101581.09
2023-05-05T19:17:19.373Z,101582.50
2023-05-05T19:19:41.269Z,101584.75
2023-05-05T19:22:03.687Z,101584.53
2023-05-05T19:24:25.480Z,101598.25
2023-05-05T19:26:47.154Z,101596.44
2023-05-05T19:29:08.920Z,101603.66
2023-05-05T19:31:31.315Z,101599.75
2023-05-05T19:34:05.287Z,101601.06
2023-05-05T19:36:27.870Z,101604.72
2023-05-05T19:38:49.951Z,101604.81
2023-05-05T19:41:12.178Z,101607.38
2023-05-05T19:43:34.185Z,101601.94
2023-05-05T19:45:56.250Z,101606.09
2023-05-05T19:48:17.878Z,101604.38
2023-05-05T19:50:39.568Z,101605.41
2023-05-05T19:53:02.854Z,101611.69
2023-05-05T19:55:24.752Z,101603.56
2023-05-05T19:57:46.528Z,101604.63
2023-05-05T20:00:10.482Z,101621.84
2023-05-05T20:02:34.675Z,101617.22
2023-05-05T20:04:58.138Z,101612.72
2023-05-05T20:07:19.862Z,101614.91
2023-05-05T20:09:41.487Z,101613.50
2023-05-05T20:12:03.554Z,101615.38
2023-05-05T20:14:25.685Z,101608.06
2023-05-05T20:16:47.982Z,101619.03
2023-05-05T20:19:10.051Z,101624.81
2023-05-05T20:21:33.731Z,101620.28
2023-05-05T20:23:55.797Z,101615.28
2023-05-05T20:26:17.855Z,101617.00
2023-05-05T20:28:43.239Z,101615.63
2023-05-05T20:31:07.730Z,101618.63
2023-05-05T20:33:29.527Z,101615.69
2023-05-05T20:35:51.537Z,101612.78
2023-05-05T20:38:14.224Z,101614.59
2023-05-05T20:40:37.091Z,101608.59
2023-05-05T20:42:59.884Z,101613.22
2023-05-05T20:45:21.762Z,101610.97
2023-05-05T20:47:43.731Z,101609.56
2023-05-05T20:50:07.574Z,101607.78
2023-05-05T20:52:29.374Z,101603.63
2023-05-05T20:54:51.193Z,101601.06
2023-05-05T20:57:13.792Z,101598.50
2023-05-05T20:59:36.874Z,101603.78
2023-05-05T21:01:58.707Z,101599.56
2023-05-05T21:04:22.016Z,101603.22
2023-05-05T21:06:43.858Z,101597.22
2023-05-05T21:09:05.607Z,101605.41
2023-05-05T21:11:27.382Z,101611.72
2023-05-05T21:13:49.284Z,101604.56
2023-05-05T21:16:11.894Z,101610.44
2023-05-05T21:18:33.634Z,101609.16
2023-05-05T21:20:56.237Z,101608.22
2023-05-05T21:23:17.992Z,101611.66
2023-05-05T21:25:39.820Z,101615.06
2023-05-05T21:28:01.842Z,101611.03
2023-05-05T21:30:24.101Z,101614.13
2023-05-05T21:32:45.995Z,101615.63
2023-05-05T21:35:09.300Z,101609.94
2023-05-05T21:37:31.314Z,101606.69
2023-05-05T21:39:53.177Z,101605.06
2023-05-05T21:42:15.179Z,101608.66
2023-05-05T21:44:36.969Z,101605.06
2023-05-05T21:46:58.977Z,101602.97
2023-05-05T21:49:22.480Z,101605.25
2023-05-05T21:51:45.788Z,101605.94
2023-05-05T21:54:07.614Z,101606.13
2023-05-05T21:56:29.531Z,101605.84
2023-05-05T21:58:51.808Z,101605.69
2023-05-05T22:01:14.542Z,101602.28
2023-05-05T22:03:36.791Z,101608.00
2023-05-05T22:05:58.822Z,101595.28
2023-05-05T22:08:20.703Z,101597.25
2023-05-05T22:10:42.992Z,101599.53
2023-05-05T22:13:05.006Z,101602.66
2023-05-05T22:15:32.606Z,101605.41
2023-05-05T22:17:55.236Z,101605.41
2023-05-05T22:20:17.198Z,101607.03
2023-05-05T22:22:39.195Z,101607.34
2023-05-05T22:25:01.104Z,101599.88
2023-05-05T22:27:23.215Z,101594.81
2023-05-05T22:29:44.914Z,101600.50
2023-05-05T22:32:06.665Z,101594.63
2023-05-05T22:34:28.318Z,101595.09
2023-05-05T22:36:50.109Z,101595.94
2023-05-05T22:39:11.901Z,101592.81
2023-05-05T22:41:33.615Z,101589.72
2023-05-05T22:43:56.300Z,101592.66
2023-05-05T22:46:18.082Z,101590.03
2023-05-05T22:48:39.793Z,101592.13
2023-05-05T22:51:01.593Z,101592.63
2023-05-05T22:53:24.227Z,101589.53
2023-05-05T22:55:46.057Z,101580.75
2023-05-05T22:58:07.946Z,101582.34
2023-05-05T23:00:30.728Z,101580.53
2023-05-05T23:02:52.621Z,101585.88
2023-05-05T23:05:14.329Z,101580.16
2023-05-05T23:07:36.118Z,101578.34
2023-05-05T23:09:57.758Z,101581.59
2023-05-05T23:12:19.439Z,101584.81
2023-05-05T23:14:41.988Z,101580.56
2023-05-05T23:17:03.811Z,101578.63
2023-05-05T23:19:26.263Z,101581.03
2023-05-05T23:21:53.318Z,101587.06
2023-05-05T23:24:15.590Z,101583.16
2023-05-05T23:26:37.251Z,101586.72
2023-05-05T23:28:58.911Z,101587.53
2023-05-05T23:31:20.640Z,101588.34
2023-05-05T23:33:42.337Z,101592.28
2023-05-05T23:36:04.597Z,101592.91
2023-05-05T23:38:26.282Z,101592.78
2023-05-05T23:40:48.009Z,101586.66
2023-05-05T23:43:09.746Z,101592.03
2023-05-05T23:45:31.465Z,101588.66
2023-05-05T23:47:53.647Z,101594.88
2023-05-05T23:50:15.660Z,101588.84
2023-05-05T23:52:37.383Z,101586.41
2023-05-05T23:54:59.048Z,101587.09
2023-05-05T23:57:20.723Z,101584.63
2023-05-05T23:59:42.427Z,101581.38
